Time;durP1;ratioP1;P1;durP2;ratioP2;P2;SDS_P1;SDS_P2;PMS_P1;PMS_P2;Temp;Humidity;BMP_temperature;BMP_pressure;BME280_temperature;BME280_humidity;BME280_pressure;Samples;Min_cycle;Max_cycle;Signal;HPM_P1;HPM_P2
2023/01/20 00:02:05;;;;;;;56.50;39.70;;;;;;;-7.55;100.00;94906.22;5080907;28;20505;-60
2023/01/20 00:04:31;;;;;;;51.63;37.00;;;;;;;-7.55;100.00;94914.72;5084273;28;20119;-60
2023/01/20 00:06:56;;;;;;;49.80;34.60;;;;;;;-7.50;100.00;94906.91;5086418;28;20405;-66
2023/01/20 00:09:21;;;;;;;45.42;31.90;;;;;;;-7.55;100.00;94912.19;5082365;28;20478;-62
2023/01/20 00:11:47;;;;;;;46.63;32.65;;;;;;;-7.57;100.00;94919.06;5078628;28;20024;-62
2023/01/20 00:14:12;;;;;;;49.58;33.42;;;;;;;-7.60;100.00;94929.41;5063509;28;20025;-62
2023/01/20 00:16:38;;;;;;;45.92;31.80;;;;;;;-7.60;100.00;94931.09;5085656;28;20075;-63
2023/01/20 00:19:03;;;;;;;49.95;32.05;;;;;;;-7.60;100.00;94931.97;5085950;28;20490;-63
2023/01/20 00:21:28;;;;;;;53.13;34.67;;;;;;;-7.58;100.00;94935.28;5088588;28;20043;-62
2023/01/20 00:23:54;;;;;;;46.00;31.70;;;;;;;-7.63;100.00;94937.16;5085990;28;20431;-63
2023/01/20 00:26:21;;;;;;;48.55;31.08;;;;;;;-7.66;100.00;94950.03;5085595;28;20030;-61
2023/01/20 00:28:48;;;;;;;59.35;35.53;;;;;;;-7.65;100.00;94956.81;5088502;28;20089;-62
2023/01/20 00:31:15;;;;;;;72.90;41.08;;;;;;;-7.66;100.00;94953.44;5088457;28;20403;-60
2023/01/20 00:33:41;;;;;;;63.25;37.13;;;;;;;-7.64;100.00;94961.91;5084958;28;20502;-60
2023/01/20 00:36:07;;;;;;;48.28;29.98;;;;;;;-7.59;100.00;94971.13;5090059;28;20028;-60
2023/01/20 00:38:32;;;;;;;47.58;29.90;;;;;;;-7.65;100.00;94977.28;5082419;28;20083;-60
2023/01/20 00:40:58;;;;;;;52.13;33.08;;;;;;;-7.71;100.00;94972.38;5085609;28;20016;-60
2023/01/20 00:43:24;;;;;;;50.45;31.60;;;;;;;-7.73;100.00;94977.53;5086476;28;20440;-60
2023/01/20 00:45:49;;;;;;;51.25;29.98;;;;;;;-7.74;100.00;94977.59;5085426;28;20020;-68
2023/01/20 00:48:14;;;;;;;47.05;30.60;;;;;;;-7.71;100.00;94975.78;5081303;28;20020;-60
2023/01/20 00:50:40;;;;;;;40.05;25.90;;;;;;;-7.72;100.00;94978.38;5077897;28;20028;-60
2023/01/20 00:53:05;;;;;;;34.50;22.85;;;;;;;-7.75;100.00;94981.84;5081361;28;20032;-60
2023/01/20 00:55:31;;;;;;;32.50;24.50;;;;;;;-7.80;100.00;94981.16;5088602;28;20016;-61
2023/01/20 00:57:56;;;;;;;34.38;23.88;;;;;;;-7.86;100.00;94979.63;5090401;28;20035;-60
2023/01/20 01:00:21;;;;;;;29.65;20.90;;;;;;;-7.84;100.00;94985.56;5058917;28;20020;-60
2023/01/20 01:02:47;;;;;;;34.10;21.67;;;;;;;-7.86;100.00;94989.03;5088892;28;20031;-60
2023/01/20 01:05:12;;;;;;;34.85;23.45;;;;;;;-7.85;100.00;94983.84;5088019;28;20389;-70
2023/01/20 01:07:37;;;;;;;34.55;24.08;;;;;;;-7.86;100.00;94987.28;5090891;28;20023;-61
2023/01/20 01:10:03;;;;;;;38.97;28.25;;;;;;;-7.86;100.00;94981.38;5087321;28;20566;-60
2023/01/20 01:12:29;;;;;;;35.58;24.77;;;;;;;-7.86;100.00;94983.91;5085173;28;20027;-60
2023/01/20 01:14:54;;;;;;;28.58;19.88;;;;;;;-7.87;100.00;94995.03;5078327;28;20024;-60
2023/01/20 01:17:22;;;;;;;22.88;16.48;;;;;;;-7.89;100.00;94997.63;5087528;28;20095;-59
2023/01/20 01:19:48;;;;;;;18.45;14.82;;;;;;;-7.88;100.00;94991.63;5083625;28;20040;-59
2023/01/20 01:22:13;;;;;;;22.42;17.35;;;;;;;-7.89;100.00;94987.38;5083295;28;20573;-60
2023/01/20 01:24:38;;;;;;;17.17;14.18;;;;;;;-7.83;100.00;94986.38;5088647;28;20482;-61
2023/01/20 01:27:04;;;;;;;18.50;13.40;;;;;;;-7.82;100.00;94993.16;5085525;28;20020;-61
2023/01/20 01:29:30;;;;;;;15.65;13.05;;;;;;;-7.77;100.00;94997.25;5078734;28;20052;-62
2023/01/20 01:31:55;;;;;;;18.10;13.35;;;;;;;-7.84;100.00;95002.59;5076517;28;20021;-61
2023/01/20 01:34:20;;;;;;;15.70;13.10;;;;;;;-7.82;100.00;95005.94;5085251;28;20016;-61
2023/01/20 01:36:46;;;;;;;14.32;11.10;;;;;;;-7.62;100.00;95013.81;5087693;28;20087;-60
2023/01/20 01:39:11;;;;;;;15.10;12.00;;;;;;;-7.63;100.00;95014.69;5084797;28;20513;-59
2023/01/20 01:41:36;;;;;;;14.45;12.20;;;;;;;-7.64;100.00;95010.47;5082620;28;20020;-60
2023/01/20 01:44:12;;;;;;;18.35;12.75;;;;;;;-7.70;100.00;95014.94;5084795;28;20469;-71
2023/01/20 01:46:40;;;;;;;22.13;15.18;;;;;;;-7.77;100.00;95016.84;5084164;28;20024;-62
2023/01/20 01:49:27;;;;;;;22.88;15.38;;;;;;;-7.82;100.00;95024.69;5082575;28;20038;-62
2023/01/20 01:52:07;;;;;;;22.98;15.27;;;;;;;-7.71;100.00;95026.03;5078198;28;20393;-63
2023/01/20 01:54:37;;;;;;;23.40;15.48;;;;;;;-7.68;100.00;95020.84;5087878;28;20032;-64
2023/01/20 01:57:05;;;;;;;21.23;15.65;;;;;;;-7.71;100.00;95026.03;5075328;28;20028;-63
2023/01/20 01:59:30;;;;;;;20.75;13.40;;;;;;;-7.70;100.00;95027.72;5075983;28;20036;-64
2023/01/20 02:01:56;;;;;;;19.92;13.05;;;;;;;-7.71;100.00;95026.03;5083503;28;20016;-66
2023/01/20 02:04:25;;;;;;;20.65;13.75;;;;;;;-7.71;100.00;95039.69;5087439;28;20020;-68
2023/01/20 02:07:04;;;;;;;16.30;13.20;;;;;;;-7.66;100.00;95042.91;5079847;28;20608;-63
2023/01/20 02:09:30;;;;;;;18.80;14.00;;;;;;;-7.56;100.00;95040.91;5098203;28;20016;-64
2023/01/20 02:12:00;;;;;;;20.48;12.15;;;;;;;-7.54;100.00;95039.13;5078073;28;20111;-64
2023/01/20 02:14:40;;;;;;;20.58;13.13;;;;;;;-7.57;100.00;95044.34;5082263;28;21130;-63
2023/01/20 02:17:19;;;;;;;18.05;13.00;;;;;;;-7.58;100.00;95052.06;5086320;28;20102;-64
2023/01/20 02:20:05;;;;;;;16.05;11.80;;;;;;;-7.57;100.00;95053.72;5082871;28;20016;-63
2023/01/20 02:23:08;;;;;;;17.55;11.15;;;;;;;-7.63;100.00;95054.75;5084718;28;20103;-68
2023/01/20 02:25:59;;;;;;;17.08;12.65;;;;;;;-7.65;100.00;95056.53;5087031;28;20031;-73
2023/01/20 02:28:42;;;;;;;18.92;12.80;;;;;;;-7.67;100.00;95063.41;5084661;28;20016;-72
2023/01/20 02:31:22;;;;;;;21.05;13.70;;;;;;;-7.64;100.00;95068.41;5085063;28;20020;-72
2023/01/20 02:34:03;;;;;;;19.27;12.68;;;;;;;-7.64;100.00;95068.41;5085655;28;20460;-72
2023/01/20 02:36:33;;;;;;;12.38;9.90;;;;;;;-7.67;100.00;95076.19;5086979;28;20085;-71
2023/01/20 02:39:12;;;;;;;5.68;5.18;;;;;;;-7.55;100.00;95078.38;5087368;28;20127;-72
2023/01/20 02:41:52;;;;;;;17.55;13.05;;;;;;;-7.51;100.00;95089.38;5083780;28;20094;-67
2023/01/20 02:44:40;;;;;;;19.60;17.60;;;;;;;-7.49;100.00;95093.53;5083661;28;20024;-70
2023/01/20 02:47:05;;;;;;;6.25;5.75;;;;;;;-7.51;100.00;95090.19;5084543;28;20032;-71
2023/01/20 02:49:44;;;;;;;8.63;7.93;;;;;;;-7.48;100.00;95090.09;5099107;28;20525;-71
2023/01/20 02:52:14;;;;;;;5.25;4.40;;;;;;;-7.46;100.00;95102.00;5088669;28;20027;-71
2023/01/20 02:54:45;;;;;;;5.35;4.95;;;;;;;-7.45;100.00;95101.09;5080646;28;20082;-71
2023/01/20 02:57:15;;;;;;;7.35;6.65;;;;;;;-7.47;100.00;95106.28;5082521;28;20593;-71
2023/01/20 02:59:45;;;;;;;4.88;4.47;;;;;;;-7.48;100.00;95115.66;5073301;28;20024;-60
2023/01/20 03:02:19;;;;;;;5.15;4.65;;;;;;;-7.46;100.00;95109.66;5080872;28;20425;-63
2023/01/20 03:04:50;;;;;;;6.13;5.00;;;;;;;-7.46;100.00;95115.63;5081945;28;20145;-60
2023/01/20 03:07:20;;;;;;;6.03;5.47;;;;;;;-7.49;100.00;95119.09;5087404;28;20076;-60
2023/01/20 03:09:49;;;;;;;7.05;5.47;;;;;;;-7.45;100.00;95113.88;5082715;28;20040;-60
2023/01/20 03:12:23;;;;;;;6.90;6.30;;;;;;;-7.50;100.00;95121.72;5084170;28;20085;-60
2023/01/20 03:14:50;;;;;;;5.95;5.45;;;;;;;-7.51;100.00;95118.31;5085695;28;20048;-60
2023/01/20 03:17:16;;;;;;;7.18;6.32;;;;;;;-7.49;100.00;95120.84;5081839;28;20024;-60
2023/01/20 03:19:42;;;;;;;5.95;5.35;;;;;;;-7.47;100.00;95113.94;5089172;28;20028;-60
2023/01/20 03:22:07;;;;;;;5.85;5.35;;;;;;;-7.42;100.00;95119.75;5084015;28;20023;-68
2023/01/20 03:24:34;;;;;;;6.00;5.40;;;;;;;-7.41;100.00;95125.69;5085222;28;20040;-60
2023/01/20 03:26:59;;;;;;;8.48;6.53;;;;;;;-7.42;100.00;95124.03;5083973;28;20405;-60
2023/01/20 03:29:25;;;;;;;5.95;5.35;;;;;;;-7.50;100.00;95132.78;5085637;28;20032;-60
2023/01/20 03:31:56;;;;;;;5.05;4.65;;;;;;;-7.58;100.00;95139.84;5083536;28;20032;-60
2023/01/20 03:34:23;;;;;;;5.10;4.50;;;;;;;-7.62;100.00;95138.28;5080486;28;20022;-60
2023/01/20 03:36:50;;;;;;;5.15;4.72;;;;;;;-7.65;100.00;95143.44;5082589;28;20449;-60
2023/01/20 03:39:16;;;;;;;5.03;4.45;;;;;;;-7.62;100.00;95146.75;5088443;28;20044;-60
2023/01/20 03:42:07;;;;;;;5.45;4.95;;;;;;;-7.61;100.00;95155.28;5082876;28;20495;-65
2023/01/20 03:45:00;;;;;;;14.90;12.07;;;;;;;-7.64;100.00;95152.78;5081512;28;20074;-72
2023/01/20 03:47:47;;;;;;;7.93;7.13;;;;;;;-7.68;100.00;95151.22;5087194;28;20017;-73
2023/01/20 03:50:46;;;;;;;9.30;6.20;;;;;;;-7.68;100.00;95148.66;5080036;28;20027;-73
2023/01/20 03:53:26;;;;;;;8.25;6.20;;;;;;;-7.72;100.00;95157.31;5067243;28;20072;-73
2023/01/20 03:55:59;;;;;;;6.18;5.57;;;;;;;-7.75;100.00;95157.41;5093110;28;20458;-73
2023/01/20 03:58:29;;;;;;;5.63;5.13;;;;;;;-7.74;100.00;95151.41;5084053;28;20024;-72
2023/01/20 04:00:56;;;;;;;6.15;5.05;;;;;;;-7.75;100.00;95158.22;5084721;28;20035;-73
2023/01/20 04:03:30;;;;;;;5.38;4.97;;;;;;;-7.81;100.00;95163.53;5089054;28;20115;-59
2023/01/20 04:05:59;;;;;;;6.20;5.60;;;;;;;-7.82;100.00;95161.84;5085052;28;20402;-60
2023/01/20 04:08:29;;;;;;;5.18;4.78;;;;;;;-7.87;100.00;95159.41;5087587;28;20213;-59
2023/01/20 04:10:58;;;;;;;5.47;4.78;;;;;;;-7.86;100.00;95166.19;5088159;28;20489;-59
2023/01/20 04:13:23;;;;;;;5.07;4.68;;;;;;;-7.86;100.00;95163.63;5089863;28;20024;-60
2023/01/20 04:15:49;;;;;;;4.90;4.43;;;;;;;-7.87;100.00;95174.75;5079345;28;20158;-59
2023/01/20 04:18:18;;;;;;;5.18;4.70;;;;;;;-7.82;100.00;95177.19;5087584;28;20053;-72
2023/01/20 04:20:47;;;;;;;4.70;4.30;;;;;;;-7.79;100.00;95172.81;5083691;28;20020;-65
2023/01/20 04:23:31;;;;;;;5.78;4.85;;;;;;;-7.80;100.00;95177.97;5086755;28;20031;-59
2023/01/20 04:25:56;;;;;;;4.97;4.60;;;;;;;-7.76;100.00;95171.88;5086688;28;20028;-60
2023/01/20 04:28:22;;;;;;;5.78;5.28;;;;;;;-7.79;100.00;95177.09;5086563;28;20031;-59
2023/01/20 04:30:47;;;;;;;6.55;5.95;;;;;;;-7.82;100.00;95174.63;5072254;28;20024;-60
2023/01/20 04:33:13;;;;;;;24.85;18.05;;;;;;;-7.82;100.00;95180.59;5081294;28;20406;-59
2023/01/20 04:35:38;;;;;;;37.38;26.27;;;;;;;-7.79;100.00;95183.06;5085777;28;20055;-59
2023/01/20 04:38:04;;;;;;;35.08;23.00;;;;;;;-7.71;100.00;95189.66;5079368;28;20052;-65
2023/01/20 04:40:29;;;;;;;33.70;21.33;;;;;;;-7.67;100.00;95183.56;5084839;28;20032;-63
2023/01/20 04:42:54;;;;;;;8.30;7.20;;;;;;;-7.64;100.00;95193.69;5087964;28;20387;-63
2023/01/20 04:45:20;;;;;;;7.13;6.28;;;;;;;-7.59;100.00;95191.88;5085207;28;20294;-64
2023/01/20 04:47:45;;;;;;;5.15;4.65;;;;;;;-7.54;100.00;95201.94;5080262;28;20023;-64
2023/01/20 04:50:12;;;;;;;6.78;5.35;;;;;;;-7.53;100.00;95201.91;5082909;28;20043;-64
2023/01/20 04:52:37;;;;;;;4.57;4.28;;;;;;;-7.52;100.00;95202.72;5088042;28;20063;-63
2023/01/20 04:55:03;;;;;;;5.43;4.85;;;;;;;-7.55;100.00;95202.84;5083940;28;20113;-63
2023/01/20 04:57:28;;;;;;;5.13;4.22;;;;;;;-7.62;100.00;95197.09;5078224;28;20027;-62
2023/01/20 04:59:54;;;;;;;5.60;5.20;;;;;;;-7.66;100.00;95208.25;5080070;28;20063;-63
2023/01/20 05:02:19;;;;;;;5.45;4.95;;;;;;;-7.69;100.00;95206.63;5083125;28;20397;-63
2023/01/20 05:04:44;;;;;;;6.55;5.95;;;;;;;-7.65;100.00;95213.34;5076484;28;20154;-63
2023/01/20 05:07:10;;;;;;;5.93;5.32;;;;;;;-7.72;100.00;95222.06;5086998;28;20020;-63
2023/01/20 05:09:36;;;;;;;5.80;5.25;;;;;;;-7.77;100.00;95224.75;5083616;28;20581;-63
2023/01/20 05:12:02;;;;;;;6.60;6.10;;;;;;;-7.79;100.00;95234.19;5083338;28;20028;-63
2023/01/20 05:14:27;;;;;;;7.32;6.63;;;;;;;-7.82;100.00;95236.81;5085337;28;20107;-63
2023/01/20 05:16:52;;;;;;;6.40;5.80;;;;;;;-7.80;100.00;95241.88;5071823;28;20067;-59
2023/01/20 05:19:17;;;;;;;6.50;5.90;;;;;;;-7.74;100.00;95241.69;5091265;28;20052;-60
2023/01/20 05:21:43;;;;;;;6.20;5.35;;;;;;;-7.65;100.00;95243.16;5091477;28;20425;-60
2023/01/20 05:24:08;;;;;;;5.53;5.03;;;;;;;-7.76;100.00;95253.69;5091147;28;20505;-59
2023/01/20 05:26:34;;;;;;;6.15;5.18;;;;;;;-7.73;100.00;95257.88;5087077;28;20023;-60
2023/01/20 05:28:59;;;;;;;5.68;5.18;;;;;;;-7.70;100.00;95268.03;5086619;28;20107;-59
2023/01/20 05:31:25;;;;;;;6.28;5.68;;;;;;;-7.65;100.00;95281.50;5091340;28;20571;-60
2023/01/20 05:33:50;;;;;;;8.60;7.90;;;;;;;-7.66;100.00;95283.25;5090657;28;20028;-59
2023/01/20 05:36:16;;;;;;;7.07;6.22;;;;;;;-7.62;100.00;95281.47;5090379;28;20031;-61
2023/01/20 05:38:41;;;;;;;7.05;6.35;;;;;;;-7.63;100.00;95295.09;5090542;28;20169;-64
2023/01/20 05:41:08;;;;;;;6.80;6.20;;;;;;;-7.63;100.00;95307.88;5090944;28;20027;-64
2023/01/20 05:43:34;;;;;;;7.97;7.15;;;;;;;-7.63;100.00;95316.41;5091235;28;20035;-64
2023/01/20 05:45:59;;;;;;;8.57;7.78;;;;;;;-7.61;100.00;95321.50;5090228;28;20032;-64
2023/01/20 05:48:24;;;;;;;10.70;9.00;;;;;;;-7.63;100.00;95323.22;5091167;28;20032;-65
2023/01/20 05:50:50;;;;;;;8.00;7.00;;;;;;;-7.52;100.00;95333.16;5090744;28;20028;-66
2023/01/20 05:53:16;;;;;;;9.50;8.60;;;;;;;-7.39;100.00;95344.75;5090655;28;20020;-66
2023/01/20 05:55:41;;;;;;;8.70;7.90;;;;;;;-7.38;100.00;95346.41;5090797;28;20032;-66
2023/01/20 05:58:07;;;;;;;8.00;7.15;;;;;;;-7.31;100.00;95347.09;5090602;28;20020;-65
2023/01/20 06:00:33;;;;;;;8.27;7.55;;;;;;;-7.28;100.00;95351.31;5090869;28;20496;-64
2023/01/20 06:02:58;;;;;;;8.85;8.02;;;;;;;-7.17;100.00;95367.19;5090460;28;20564;-65
2023/01/20 06:05:24;;;;;;;13.50;12.20;;;;;;;-7.23;100.00;95365.63;5090562;28;20371;-64
2023/01/20 06:07:49;;;;;;;29.70;19.55;;;;;;;-7.11;100.00;95373.84;5090460;28;20024;-64
2023/01/20 06:10:16;;;;;;;24.88;19.20;;;;;;;-7.11;100.00;95373.84;5090250;28;20493;-64
2023/01/20 06:12:41;;;;;;;18.35;15.73;;;;;;;-7.06;100.00;95377.97;5090356;28;20486;-64
2023/01/20 06:15:07;;;;;;;19.70;15.73;;;;;;;-6.99;100.00;95382.91;5090336;28;20024;-60
2023/01/20 06:17:32;;;;;;;14.57;13.07;;;;;;;-6.99;100.00;95382.91;5089752;28;20102;-64
2023/01/20 06:19:59;;;;;;;11.52;10.32;;;;;;;-6.93;100.00;95387.84;5090195;28;20020;-64
2023/01/20 06:22:25;;;;;;;11.27;10.27;;;;;;;-6.91;100.00;95392.06;5089824;28;20028;-64
2023/01/20 06:24:51;;;;;;;12.57;11.25;;;;;;;-6.85;100.00;95398.72;5090490;28;20585;-63
2023/01/20 06:27:16;;;;;;;14.57;12.75;;;;;;;-6.94;100.00;95394.69;5088966;28;20476;-63
2023/01/20 06:29:42;;;;;;;11.18;10.10;;;;;;;-6.97;100.00;95392.19;5088856;28;20030;-64
2023/01/20 06:32:07;;;;;;;19.08;13.07;;;;;;;-7.02;100.00;95391.50;5088390;28;20097;-64
2023/01/20 06:34:33;;;;;;;16.73;11.68;;;;;;;-7.03;100.00;95394.13;5088608;28;20022;-62
2023/01/20 06:36:58;;;;;;;23.95;18.27;;;;;;;-7.02;100.00;95399.19;5088074;28;20110;-64
2023/01/20 06:39:24;;;;;;;17.60;15.75;;;;;;;-6.89;100.00;95403.97;5088504;28;20020;-64
2023/01/20 06:41:49;;;;;;;11.23;10.15;;;;;;;-6.81;100.00;95412.25;5086485;28;20098;-64
2023/01/20 06:44:16;;;;;;;12.10;10.82;;;;;;;-6.77;100.00;95412.13;5087828;28;20473;-64
2023/01/20 06:46:41;;;;;;;11.30;10.30;;;;;;;-6.70;100.00;95419.63;5088473;28;20032;-64
2023/01/20 06:49:06;;;;;;;14.85;13.48;;;;;;;-6.72;100.00;95416.28;5088130;28;20081;-64
2023/01/20 06:51:32;;;;;;;15.27;12.13;;;;;;;-6.64;100.00;95414.31;5087273;28;20040;-61
2023/01/20 06:53:58;;;;;;;11.65;10.52;;;;;;;-6.55;100.00;95415.78;5089708;28;20448;-62
2023/01/20 06:56:23;;;;;;;12.18;10.98;;;;;;;-6.58;100.00;95415.88;5089997;28;20027;-66
2023/01/20 06:58:49;;;;;;;12.38;11.15;;;;;;;-6.55;100.00;95423.47;5089565;28;20031;-69
2023/01/20 07:01:20;;;;;;;13.75;10.88;;;;;;;-6.55;100.00;95429.44;5089497;28;20564;-68
2023/01/20 07:03:45;;;;;;;12.43;11.23;;;;;;;-6.52;100.00;95436.19;5089049;28;20080;-67
2023/01/20 07:06:15;;;;;;;15.98;14.30;;;;;;;-6.67;100.00;95429.78;5089876;28;20442;-67
2023/01/20 07:08:42;;;;;;;21.77;19.48;;;;;;;-6.70;100.00;95435.84;5089446;28;20023;-68
2023/01/20 07:11:08;;;;;;;21.95;19.73;;;;;;;-6.68;100.00;95441.75;5088115;28;20035;-66
2023/01/20 07:13:33;;;;;;;19.55;17.48;;;;;;;-6.67;100.00;95451.13;5087620;28;20020;-61
2023/01/20 07:15:58;;;;;;;17.35;15.45;;;;;;;-6.70;100.00;95450.38;5088001;28;20032;-66
2023/01/20 07:18:24;;;;;;;16.52;14.93;;;;;;;-6.72;100.00;95460.66;5088555;28;20016;-65
2023/01/20 07:20:56;;;;;;;17.58;15.77;;;;;;;-6.77;100.00;95458.22;5089241;28;20082;-64
2023/01/20 07:23:23;;;;;;;18.33;16.52;;;;;;;-6.73;100.00;95471.78;5088034;28;20505;-66
2023/01/20 07:25:59;;;;;;;20.85;16.45;;;;;;;-6.74;100.00;95472.69;5087830;28;20043;-66
2023/01/20 07:28:25;;;;;;;22.40;14.60;;;;;;;-6.53;100.00;95478.06;5076025;28;20482;-67
2023/01/20 07:30:51;;;;;;;18.33;13.40;;;;;;;-6.60;100.00;95485.09;5089364;28;20043;-60
2023/01/20 07:33:16;;;;;;;14.48;13.02;;;;;;;-6.65;100.00;95492.91;5093789;28;20192;-61
2023/01/20 07:35:41;;;;;;;21.50;17.50;;;;;;;-6.73;100.00;95497.41;5084086;28;20021;-73
2023/01/20 07:38:06;;;;;;;21.35;16.60;;;;;;;-6.79;100.00;95508.63;5087077;28;20150;-71
2023/01/20 07:40:32;;;;;;;26.02;20.83;;;;;;;-6.73;100.00;95506.78;5091310;28;20020;-70
2023/01/20 07:42:57;;;;;;;20.92;17.70;;;;;;;-6.66;100.00;95513.41;5091891;28;20032;-70
2023/01/20 07:45:22;;;;;;;28.73;23.75;;;;;;;-6.72;100.00;95516.16;5091194;28;20569;-71
2023/01/20 07:47:48;;;;;;;27.67;22.75;;;;;;;-6.76;100.00;95523.06;5091661;28;20485;-72
2023/01/20 07:50:13;;;;;;;20.58;17.92;;;;;;;-6.36;100.00;95516.03;5088487;28;20501;-70
2023/01/20 07:52:39;;;;;;;19.02;17.05;;;;;;;-6.76;100.00;95523.06;5091509;28;20046;-61
2023/01/20 07:55:04;;;;;;;18.02;15.63;;;;;;;-6.74;100.00;95529.00;5090197;28;20023;-62
2023/01/20 07:57:30;;;;;;;16.15;13.27;;;;;;;-6.70;100.00;95533.16;5089205;28;20038;-61
2023/01/20 07:59:55;;;;;;;13.73;12.32;;;;;;;-6.68;100.00;95531.41;5091247;28;20569;-62
2023/01/20 08:02:20;;;;;;;16.40;14.80;;;;;;;-6.80;100.00;95544.50;5091530;28;20038;-61
2023/01/20 08:04:46;;;;;;;21.60;19.38;;;;;;;-6.62;100.00;95545.78;5091631;28;20436;-61
2023/01/20 08:07:11;;;;;;;19.17;17.17;;;;;;;-6.76;100.00;95543.53;5091477;28;20502;-61
2023/01/20 08:09:36;;;;;;;19.40;17.02;;;;;;;-6.79;100.00;95544.50;5089540;28;20546;-68
2023/01/20 08:12:02;;;;;;;18.50;16.70;;;;;;;-6.80;100.00;95545.38;5073483;28;20020;-62
2023/01/20 08:14:27;;;;;;;18.20;16.30;;;;;;;-6.83;100.00;95547.16;5090537;28;20054;-66
2023/01/20 08:16:52;;;;;;;25.50;22.73;;;;;;;-6.77;100.00;95541.88;5092211;28;20020;-65
2023/01/20 08:19:18;;;;;;;23.50;20.40;;;;;;;-6.81;100.00;95555.63;5091695;28;20023;-65
2023/01/20 08:21:43;;;;;;;22.02;18.73;;;;;;;-6.84;100.00;95563.41;5079030;28;20047;-65
2023/01/20 08:24:09;;;;;;;18.75;16.75;;;;;;;-6.60;100.00;95558.50;5084649;28;20021;-65
2023/01/20 08:26:34;;;;;;;18.52;16.23;;;;;;;-6.56;100.00;95565.22;5074539;28;20089;-66
2023/01/20 08:29:05;;;;;;;18.83;16.33;;;;;;;-6.66;100.00;95574.88;5091034;28;20024;-64
2023/01/20 08:31:31;;;;;;;22.40;19.92;;;;;;;-6.69;100.00;95582.66;5060533;28;20524;-67
2023/01/20 08:33:57;;;;;;;21.80;17.17;;;;;;;-6.66;100.00;95588.53;5091337;28;20107;-68
2023/01/20 08:36:29;;;;;;;18.60;16.25;;;;;;;-6.76;100.00;95607.56;5083742;28;20103;-67
2023/01/20 08:39:00;;;;;;;18.05;16.10;;;;;;;-6.67;100.00;95609.91;5090939;28;20454;-67
2023/01/20 08:41:29;;;;;;;16.88;15.13;;;;;;;-6.57;100.00;95617.34;5087617;28;20112;-69
2023/01/20 08:43:57;;;;;;;16.85;14.32;;;;;;;-6.55;100.00;95619.00;5080369;28;20028;-68
2023/01/20 08:46:22;;;;;;;14.48;12.35;;;;;;;-6.45;100.00;95623.88;5090902;28;20034;-69
2023/01/20 08:48:48;;;;;;;16.17;14.48;;;;;;;-6.36;100.00;95627.03;5091121;28;20107;-64
2023/01/20 08:51:18;;;;;;;20.15;15.68;;;;;;;-6.41;100.00;95626.31;5091598;28;20051;-68
2023/01/20 08:53:44;;;;;;;14.40;12.73;;;;;;;-6.47;100.00;95632.44;5079361;28;20448;-62
2023/01/20 08:56:10;;;;;;;15.60;13.57;;;;;;;-6.51;100.00;95637.69;5091074;28;20032;-61
2023/01/20 08:58:36;;;;;;;16.05;14.35;;;;;;;-6.53;100.00;95640.28;5091789;28;20024;-61
2023/01/20 09:01:12;;;;;;;18.42;15.13;;;;;;;-6.42;100.00;95649.41;5091348;28;20065;-61
2023/01/20 09:03:38;;;;;;;;;;;;;;;-6.36;100.00;95657.78;5091453;28;20028;-62
2023/01/20 09:06:05;;;;;;;15.07;13.48;;;;;;;-6.38;100.00;95659.53;5091432;28;19982;-61
2023/01/20 09:08:31;;;;;;;15.00;13.38;;;;;;;-6.34;100.00;95660.31;5091349;28;20110;-65
2023/01/20 09:11:15;;;;;;;14.40;12.88;;;;;;;-6.09;100.00;95660.47;5090666;28;20027;-70
2023/01/20 09:13:40;;;;;;;13.43;12.13;;;;;;;-6.05;100.00;95658.69;5090882;28;20036;-70
2023/01/20 09:16:07;;;;;;;14.95;13.45;;;;;;;-5.89;100.00;95669.31;5091320;28;20505;-70
2023/01/20 09:18:33;;;;;;;15.98;14.38;;;;;;;-5.78;100.00;95676.72;5090599;28;20073;-70
2023/01/20 09:21:06;;;;;;;20.15;16.27;;;;;;;-5.70;100.00;95672.22;5090688;28;20112;-70
2023/01/20 09:23:33;;;;;;;15.55;13.90;;;;;;;-5.51;100.00;95687.91;5090504;28;20417;-71
2023/01/20 09:25:59;;;;;;;19.08;15.98;;;;;;;-5.51;100.00;95685.34;5091319;28;20402;-70
2023/01/20 09:28:25;;;;;;;17.08;15.25;;;;;;;-5.35;100.00;95685.75;5090596;28;20381;-62
2023/01/20 09:30:59;;;;;;;13.45;11.40;;;;;;;-5.21;100.00;95687.06;5089628;28;20035;-68
2023/01/20 09:33:25;;;;;;;14.32;12.60;;;;;;;-5.05;100.00;95693.41;5086070;28;20032;-67
2023/01/20 09:35:58;;;;;;;15.25;12.25;;;;;;;-4.93;100.00;95699.06;5089525;28;20032;-67
2023/01/20 09:44:31;;;;;;;12.00;10.77;;;;;;;-4.44;97.62;95711.22;5087829;28;20273;-68
2023/01/20 09:47:24;;;;;;;12.18;10.98;;;;;;;-4.10;97.41;95713.50;5090244;28;20093;-69
2023/01/20 09:53:25;;;;;;;15.88;12.70;;;;;;;-4.06;97.38;95724.53;5088360;28;20414;-68
2023/01/20 09:55:58;;;;;;;17.02;14.95;;;;;;;-4.05;97.69;95723.66;5088147;28;20024;-68
2023/01/20 09:58:56;;;;;;;13.38;12.00;;;;;;;-3.98;96.82;95726.84;5086945;28;20030;-66
2023/01/20 10:01:44;;;;;;;25.77;21.50;;;;;;;-3.71;95.93;95719.91;5086619;28;20472;-67
2023/01/20 10:04:20;;;;;;;16.67;14.60;;;;;;;-3.60;93.78;95717.78;5084703;28;20031;-65
2023/01/20 10:06:58;;;;;;;19.85;17.25;;;;;;;-3.43;94.43;95723.22;5085916;28;20043;-68
2023/01/20 10:09:34;;;;;;;47.70;34.25;;;;;;;-3.34;91.88;95722.91;5086284;28;20058;-65
2023/01/20 10:12:23;;;;;;;26.02;18.10;;;;;;;-3.19;92.88;95726.63;5071407;28;20020;-65
2023/01/20 10:15:06;;;;;;;15.82;14.13;;;;;;;-3.12;90.92;95727.25;5088313;28;20051;-65
2023/01/20 10:18:04;;;;;;;13.60;12.20;;;;;;;-3.11;90.66;95724.59;5087396;28;20012;-65
2023/01/20 10:21:03;;;;;;;46.35;25.92;;;;;;;-2.99;89.66;95717.31;5087283;28;20455;-64
2023/01/20 10:23:53;;;;;;;16.17;12.93;;;;;;;-2.82;89.93;95726.97;5086745;28;20030;-64
2023/01/20 10:26:40;;;;;;;14.85;13.02;;;;;;;-2.83;89.08;95733.03;5088391;28;20031;-72
2023/01/20 10:29:10;;;;;;;18.52;15.95;;;;;;;-2.78;89.17;95721.66;5087826;28;20024;-63
2023/01/20 10:31:47;;;;;;;10.85;9.75;;;;;;;-2.84;88.76;95728.75;5089560;28;20055;-64
2023/01/20 10:34:18;;;;;;;14.73;12.23;;;;;;;-2.51;89.63;95715.47;5077356;28;20028;-64
2023/01/20 10:36:52;;;;;;;18.92;16.67;;;;;;;-2.27;88.98;95716.19;5089702;28;20020;-64
2023/01/20 10:39:33;;;;;;;13.10;11.63;;;;;;;-1.99;88.89;95724.53;5089266;28;20044;-64
2023/01/20 10:42:08;;;;;;;11.35;10.25;;;;;;;-1.67;86.92;95719.72;5089123;28;20042;-64
2023/01/20 10:44:34;;;;;;;14.05;10.63;;;;;;;-1.44;86.06;95726.50;5080368;28;20099;-63
2023/01/20 10:47:16;;;;;;;12.90;11.57;;;;;;;-1.32;84.16;95719.94;5089168;28;20119;-71
2023/01/20 10:49:55;;;;;;;13.50;12.20;;;;;;;-1.63;81.85;95716.13;5089847;28;20015;-61
2023/01/20 10:52:35;;;;;;;12.27;11.07;;;;;;;-1.48;82.86;95720.59;5089015;28;20035;-61
2023/01/20 10:55:19;;;;;;;20.52;18.05;;;;;;;-1.45;81.84;95715.31;5088359;28;20028;-61
2023/01/20 10:57:51;;;;;;;15.77;14.18;;;;;;;-1.47;82.20;95716.28;5088638;28;20024;-61
2023/01/20 11:00:30;;;;;;;15.23;12.48;;;;;;;-1.39;81.65;95713.38;5089332;28;20039;-61
2023/01/20 11:03:01;;;;;;;13.63;11.93;;;;;;;-1.45;81.20;95709.31;5088423;28;20027;-68
2023/01/20 11:05:29;;;;;;;15.07;13.65;;;;;;;-1.58;81.05;95712.44;5088131;28;20081;-61
2023/01/20 11:07:56;;;;;;;18.10;16.30;;;;;;;-1.69;83.77;95709.50;5087499;28;20032;-65
2023/01/20 11:10:25;;;;;;;13.13;11.85;;;;;;;-1.30;83.97;95715.53;5088590;28;20113;-65
2023/01/20 11:12:56;;;;;;;12.40;11.20;;;;;;;-1.02;83.58;95719.44;5088928;28;20024;-65
2023/01/20 11:15:27;;;;;;;12.65;11.45;;;;;;;-0.87;81.87;95716.16;5088341;28;20103;-65
2023/01/20 11:18:14;;;;;;;14.70;13.20;;;;;;;-1.05;82.08;95712.69;5088814;28;20444;-65
2023/01/20 11:20:52;;;;;;;16.60;15.02;;;;;;;-1.06;82.97;95713.59;5084011;28;20028;-65
2023/01/20 11:23:26;;;;;;;15.57;13.95;;;;;;;-1.16;82.53;95713.19;5069993;28;20509;-63
2023/01/20 11:26:14;;;;;;;18.27;16.15;;;;;;;-1.14;82.54;95718.25;5087684;28;20036;-67
2023/01/20 11:29:09;;;;;;;15.20;13.80;;;;;;;-1.17;81.13;95726.16;5076902;28;20032;-72
2023/01/20 11:31:45;;;;;;;14.07;12.77;;;;;;;-1.18;81.26;95722.75;5057575;28;20036;-72
2023/01/20 11:34:24;;;;;;;14.52;13.10;;;;;;;-0.85;82.74;95715.25;5088198;28;20099;-71
2023/01/20 11:37:20;;;;;;;13.15;11.85;;;;;;;-0.75;82.15;95719.91;5085207;28;20024;-71